Time;durP1;ratioP1;P1;durP2;ratioP2;P2;SDS_P1;SDS_P2;PMS_P1;PMS_P2;Temp;Humidity;BMP_temperature;BMP_pressure;BME280_temperature;BME280_humidity;BME280_pressure;Samples;Min_cycle;Max_cycle;Signal;HPM_P1;HPM_P2
2022/12/06 00:02:01;;;;;;;25.85;11.35;;;3.20;99.90;;;;;;5016952;28;20033;-79
2022/12/06 00:04:27;;;;;;;106.78;36.90;;;3.20;99.90;;;;;;5032126;28;20032;-79
2022/12/06 00:06:53;;;;;;;108.38;39.08;;;3.30;99.90;;;;;;5020172;28;20040;-79
2022/12/06 00:09:27;;;;;;;118.85;41.63;;;3.30;99.90;;;;;;5038801;28;20479;-80
2022/12/06 00:11:54;;;;;;;134.95;46.30;;;3.30;99.90;;;;;;5039857;28;20078;-80
2022/12/06 00:14:20;;;;;;;105.63;38.65;;;3.30;99.90;;;;;;5038503;28;20032;-79
2022/12/06 00:16:46;;;;;;;64.30;24.67;;;3.30;99.90;;;;;;5034687;28;20027;-79
2022/12/06 00:19:14;;;;;;;37.00;16.38;;;3.20;99.90;;;;;;5037099;28;20413;-79
2022/12/06 00:21:40;;;;;;;25.17;14.88;;;3.20;99.90;;;;;;5047995;28;20055;-79
2022/12/06 00:24:15;;;;;;;22.08;12.73;;;3.20;99.90;;;;;;5042525;28;20029;-80
2022/12/06 00:26:43;;;;;;;19.42;12.45;;;3.20;99.90;;;;;;5036028;28;20034;-80
2022/12/06 00:29:14;;;;;;;16.77;10.90;;;3.20;99.90;;;;;;5036503;28;20024;-80
2022/12/06 00:31:39;;;;;;;17.90;11.48;;;3.20;99.90;;;;;;5037651;28;20068;-78
2022/12/06 00:34:05;;;;;;;14.18;9.27;;;3.20;99.90;;;;;;5034688;28;20022;-79
2022/12/06 00:36:36;;;;;;;10.48;6.75;;;3.10;99.90;;;;;;5035056;28;20029;-79
2022/12/06 00:39:05;;;;;;;6.95;5.43;;;3.10;99.90;;;;;;5034810;28;20029;-80
2022/12/06 00:41:32;;;;;;;7.22;4.40;;;3.10;99.90;;;;;;5045798;28;20441;-80
2022/12/06 00:43:58;;;;;;;5.93;4.40;;;3.10;99.90;;;;;;5034170;28;20033;-80
2022/12/06 00:46:28;;;;;;;5.50;3.92;;;3.00;99.90;;;;;;5033999;28;20022;-80
2022/12/06 00:48:55;;;;;;;6.15;4.35;;;3.00;99.90;;;;;;5028691;28;20028;-80
2022/12/06 00:51:22;;;;;;;6.22;3.95;;;3.00;99.90;;;;;;5054019;28;20029;-79
2022/12/06 00:53:48;;;;;;;5.40;3.70;;;3.00;99.90;;;;;;5053581;28;20084;-80
2022/12/06 00:56:15;;;;;;;4.78;3.05;;;2.90;99.90;;;;;;5042029;28;20033;-80
2022/12/06 00:58:40;;;;;;;4.88;3.50;;;2.90;99.90;;;;;;5039456;28;20032;-80
2022/12/06 01:01:11;;;;;;;5.40;3.90;;;2.90;99.90;;;;;;5037759;28;20386;-80
2022/12/06 01:03:38;;;;;;;5.13;3.97;;;2.90;99.90;;;;;;5038296;28;20025;-79
2022/12/06 01:06:05;;;;;;;5.57;3.70;;;2.80;99.90;;;;;;5037727;28;20033;-79
2022/12/06 01:08:32;;;;;;;6.70;3.90;;;2.90;99.90;;;;;;5047636;28;20206;-80
2022/12/06 01:10:58;;;;;;;4.00;3.33;;;2.90;99.90;;;;;;5053467;28;20029;-79
2022/12/06 01:13:24;;;;;;;6.55;4.18;;;2.90;99.90;;;;;;5058028;28;20097;-79
2022/12/06 01:15:49;;;;;;;6.28;4.38;;;2.90;99.90;;;;;;5057617;28;20048;-80
2022/12/06 01:18:15;;;;;;;6.00;3.88;;;2.90;99.90;;;;;;5046681;28;20025;-80
2022/12/06 01:20:41;;;;;;;5.60;3.40;;;3.00;99.90;;;;;;5037957;28;20032;-79
2022/12/06 01:23:06;;;;;;;4.68;3.35;;;3.00;99.90;;;;;;5037753;28;20067;-80
2022/12/06 01:25:32;;;;;;;6.68;3.70;;;2.90;99.90;;;;;;5038305;28;20030;-79
2022/12/06 01:27:58;;;;;;;3.58;3.22;;;2.90;99.90;;;;;;5038880;28;20041;-79
2022/12/06 01:30:24;;;;;;;6.00;3.72;;;2.90;99.90;;;;;;5050634;28;20467;-79
2022/12/06 01:32:50;;;;;;;6.55;4.10;;;3.00;99.90;;;;;;5036943;28;20029;-79
2022/12/06 01:35:16;;;;;;;5.63;4.07;;;3.00;99.90;;;;;;5038316;28;20104;-80
2022/12/06 01:37:41;;;;;;;6.72;3.72;;;3.00;99.90;;;;;;5037881;28;20462;-80
2022/12/06 01:40:08;;;;;;;5.97;4.45;;;2.90;99.90;;;;;;5044467;28;20029;-80
2022/12/06 01:42:33;;;;;;;6.00;4.25;;;2.80;99.90;;;;;;5038815;28;20068;-80
2022/12/06 01:45:00;;;;;;;9.68;4.95;;;2.80;99.90;;;;;;5037857;28;20036;-80
2022/12/06 01:47:29;;;;;;;7.00;4.43;;;2.70;99.90;;;;;;5019385;28;20129;-80
2022/12/06 01:50:09;;;;;;;7.25;4.78;;;2.60;99.90;;;;;;5054099;28;20528;-80
2022/12/06 01:52:42;;;;;;;6.57;4.28;;;2.50;99.90;;;;;;5037688;28;20061;-80
2022/12/06 01:55:11;;;;;;;5.78;4.50;;;2.50;99.90;;;;;;5037368;28;20025;-79
2022/12/06 01:57:37;;;;;;;8.02;5.18;;;2.40;99.90;;;;;;5036297;28;20036;-78
2022/12/06 02:00:03;;;;;;;6.60;4.43;;;2.40;99.90;;;;;;5037804;28;20025;-79
2022/12/06 02:02:29;;;;;;;7.57;4.60;;;2.40;99.90;;;;;;5037016;28;20566;-78
2022/12/06 02:04:56;;;;;;;5.85;4.28;;;2.40;99.90;;;;;;5019741;28;20037;-78
2022/12/06 02:07:26;;;;;;;6.35;4.35;;;2.40;99.90;;;;;;5036517;28;20032;-79
2022/12/06 02:09:52;;;;;;;6.97;4.57;;;2.30;99.90;;;;;;5047127;28;20521;-79
2022/12/06 02:12:18;;;;;;;6.53;4.10;;;2.30;99.90;;;;;;5046976;28;20061;-79
2022/12/06 02:14:48;;;;;;;4.25;3.47;;;2.30;99.90;;;;;;5043784;28;20170;-79
2022/12/06 02:17:25;;;;;;;5.72;3.92;;;2.20;99.90;;;;;;5041546;28;20064;-79
2022/12/06 02:19:57;;;;;;;7.13;4.20;;;2.20;99.90;;;;;;5040243;28;20092;-78
2022/12/06 02:23:07;;;;;;;7.32;4.40;;;2.20;99.90;;;;;;5037051;28;20091;-79
2022/12/06 02:26:01;;;;;;;7.20;4.38;;;2.20;99.90;;;;;;5021660;28;20064;-79
2022/12/06 02:28:56;;;;;;;9.10;6.22;;;2.20;99.90;;;;;;5011893;28;20558;-79
2022/12/06 02:31:54;;;;;;;7.60;5.68;;;2.20;99.90;;;;;;5021090;28;20049;-81
2022/12/06 02:34:39;;;;;;;8.27;5.40;;;2.20;99.90;;;;;;5023099;28;20033;-79
2022/12/06 02:37:33;;;;;;;7.47;5.13;;;2.30;99.90;;;;;;5055001;28;20028;-81
2022/12/06 02:40:11;;;;;;;10.50;7.18;;;2.40;99.90;;;;;;5057125;28;20534;-79
2022/12/06 02:42:48;;;;;;;9.20;6.65;;;2.50;99.90;;;;;;5040096;28;20022;-79
2022/12/06 02:45:19;;;;;;;8.70;6.32;;;2.50;99.90;;;;;;5046985;28;20044;-79
2022/12/06 02:47:48;;;;;;;12.10;6.25;;;2.60;99.90;;;;;;5041350;28;20036;-79
2022/12/06 02:50:18;;;;;;;9.80;6.53;;;2.60;99.90;;;;;;5054850;28;20021;-79
2022/12/06 02:52:47;;;;;;;10.25;6.00;;;2.70;99.90;;;;;;5036599;28;20022;-79
2022/12/06 02:55:14;;;;;;;7.72;5.32;;;2.70;99.90;;;;;;5036785;28;20079;-79
2022/12/06 02:57:43;;;;;;;9.82;5.68;;;2.70;99.90;;;;;;5035746;28;20021;-80
2022/12/06 03:00:28;;;;;;;8.02;5.70;;;2.80;99.90;;;;;;5040165;28;20100;-80
2022/12/06 03:03:03;;;;;;;9.10;6.47;;;2.80;99.90;;;;;;5016141;28;20517;-79
2022/12/06 03:05:38;;;;;;;7.13;5.47;;;2.80;99.90;;;;;;5017004;28;20105;-79
2022/12/06 03:08:12;;;;;;;7.80;5.78;;;2.80;99.90;;;;;;5054785;28;20029;-79
2022/12/06 03:10:50;;;;;;;9.60;5.60;;;2.80;99.90;;;;;;5049583;28;20014;-79
2022/12/06 03:13:24;;;;;;;9.07;5.93;;;2.80;99.90;;;;;;5050431;28;20386;-78
2022/12/06 03:15:59;;;;;;;9.95;6.45;;;2.80;99.90;;;;;;5045833;28;20022;-79
2022/12/06 03:18:43;;;;;;;9.07;5.90;;;2.70;99.90;;;;;;5018030;28;20449;-79
2022/12/06 03:21:23;;;;;;;9.50;6.32;;;2.60;99.90;;;;;;5037383;28;20029;-78
2022/12/06 03:23:50;;;;;;;10.60;5.80;;;2.50;99.90;;;;;;5056532;28;20063;-79
2022/12/06 03:26:24;;;;;;;8.85;6.20;;;2.40;99.90;;;;;;5043296;28;20034;-80
2022/12/06 03:28:53;;;;;;;9.20;6.45;;;2.20;99.90;;;;;;5035260;28;20061;-80
2022/12/06 03:31:21;;;;;;;10.32;5.95;;;2.10;99.90;;;;;;5035858;28;20056;-79
2022/12/06 03:34:01;;;;;;;9.30;5.80;;;2.00;99.90;;;;;;5032562;28;20033;-79
2022/12/06 03:36:29;;;;;;;9.90;6.38;;;1.90;99.90;;;;;;5044907;28;20044;-80
2022/12/06 03:38:59;;;;;;;10.07;6.55;;;1.80;99.90;;;;;;5038058;28;20501;-80
2022/12/06 03:41:30;;;;;;;8.32;6.10;;;1.80;99.90;;;;;;5037208;28;20029;-79
2022/12/06 03:43:57;;;;;;;11.57;7.03;;;1.70;99.90;;;;;;5037128;28;20033;-79
2022/12/06 03:46:29;;;;;;;10.98;6.57;;;1.70;99.90;;;;;;5035960;28;20427;-80
2022/12/06 03:48:57;;;;;;;8.40;6.53;;;1.60;99.90;;;;;;5036655;28;20037;-80
2022/12/06 03:51:27;;;;;;;8.95;6.18;;;1.70;99.90;;;;;;5019067;28;20509;-80
2022/12/06 03:53:57;;;;;;;8.65;5.97;;;1.70;99.90;;;;;;5036986;28;20026;-80
2022/12/06 03:56:23;;;;;;;8.07;5.53;;;1.80;99.90;;;;;;5017986;28;20017;-80
2022/12/06 03:58:49;;;;;;;10.27;6.20;;;1.90;99.90;;;;;;5036331;28;20083;-80
2022/12/06 04:01:15;;;;;;;10.73;7.22;;;1.90;99.90;;;;;;5019343;28;20048;-79
2022/12/06 04:03:40;;;;;;;10.40;6.60;;;2.00;99.90;;;;;;5045862;28;20033;-80
2022/12/06 04:06:08;;;;;;;12.25;7.72;;;2.00;99.90;;;;;;5054277;28;20482;-79
2022/12/06 04:08:33;;;;;;;7.82;5.72;;;2.00;99.90;;;;;;5056519;28;20029;-80
2022/12/06 04:10:59;;;;;;;8.82;6.35;;;2.00;99.90;;;;;;5029587;28;20391;-80
2022/12/06 04:13:26;;;;;;;10.13;6.53;;;2.00;99.90;;;;;;5036851;28;20371;-81
2022/12/06 04:15:57;;;;;;;9.90;7.15;;;2.00;99.90;;;;;;5015955;28;20025;-80
2022/12/06 04:18:23;;;;;;;9.88;6.70;;;1.90;99.90;;;;;;5029175;28;20469;-80
2022/12/06 04:23:50;;;;;;;9.73;5.95;;;1.70;99.90;;;;;;5055074;28;20028;-79
2022/12/06 04:26:21;;;;;;;8.95;6.40;;;1.70;99.90;;;;;;5041697;28;20124;-79
2022/12/06 04:39:48;;;;;;;10.95;6.63;;;1.40;99.90;;;;;;5035275;28;20072;-79
2022/12/06 04:44:58;;;;;;;10.52;6.57;;;1.40;99.90;;;;;;5037409;28;20044;-79
2022/12/06 04:47:24;;;;;;;12.18;7.28;;;1.40;99.90;;;;;;5046919;28;20398;-79
2022/12/06 04:49:50;;;;;;;11.23;6.97;;;1.40;99.90;;;;;;5039679;28;20037;-80
2022/12/06 04:52:16;;;;;;;11.18;6.97;;;1.30;99.90;;;;;;5017989;28;20017;-80
2022/12/06 04:54:42;;;;;;;10.20;6.35;;;1.30;99.90;;;;;;5021054;28;20075;-80
2022/12/06 04:57:11;;;;;;;12.30;7.63;;;1.30;99.90;;;;;;5035469;28;20030;-79
2022/12/06 04:59:39;;;;;;;9.95;6.55;;;1.30;99.90;;;;;;5018136;28;20116;-80
2022/12/06 05:02:05;;;;;;;14.50;7.60;;;1.30;99.90;;;;;;5036062;28;20030;-80
2022/12/06 05:04:31;;;;;;;11.10;7.00;;;1.30;99.90;;;;;;5049363;28;20029;-80
2022/12/06 05:06:57;;;;;;;12.30;7.95;;;1.30;99.90;;;;;;5053740;28;20094;-80
2022/12/06 05:09:23;;;;;;;11.35;7.03;;;1.20;99.90;;;;;;5055001;28;20483;-80
2022/12/06 05:11:49;;;;;;;11.40;7.10;;;1.20;99.90;;;;;;5036947;28;20028;-79
2022/12/06 05:14:15;;;;;;;13.00;7.70;;;1.20;99.90;;;;;;5046197;28;20400;-80
2022/12/06 05:16:40;;;;;;;14.02;8.10;;;1.20;99.90;;;;;;5033746;28;20025;-80
2022/12/06 05:19:06;;;;;;;13.13;8.02;;;1.20;99.90;;;;;;5034091;28;20498;-80
2022/12/06 05:21:32;;;;;;;11.48;7.43;;;1.20;99.90;;;;;;5035338;28;20052;-79
2022/12/06 05:23:58;;;;;;;12.93;7.75;;;1.20;99.90;;;;;;5035477;28;20030;-81
2022/12/06 05:26:27;;;;;;;15.43;8.65;;;1.20;99.90;;;;;;5041642;28;20060;-79
2022/12/06 05:28:53;;;;;;;19.58;10.88;;;1.10;99.90;;;;;;5040813;28;20001;-80
2022/12/06 05:31:20;;;;;;;18.00;10.25;;;1.20;99.90;;;;;;5019462;28;20117;-81
2022/12/06 05:33:46;;;;;;;18.20;10.30;;;1.20;99.90;;;;;;5044939;28;20048;-79
2022/12/06 05:36:15;;;;;;;17.38;10.27;;;1.20;99.90;;;;;;5040616;28;20056;-80
2022/12/06 05:38:41;;;;;;;16.33;10.45;;;1.20;99.90;;;;;;5045212;28;20359;-80
2022/12/06 05:41:07;;;;;;;21.17;11.10;;;1.20;99.90;;;;;;5037493;28;20035;-80
2022/12/06 05:43:33;;;;;;;20.45;11.13;;;1.20;99.90;;;;;;5041810;28;20025;-79
2022/12/06 05:45:59;;;;;;;18.70;11.93;;;1.30;99.90;;;;;;5035655;28;20083;-80
2022/12/06 05:48:25;;;;;;;17.98;11.02;;;1.30;99.90;;;;;;5038337;28;20026;-80
2022/12/06 05:50:52;;;;;;;20.42;12.85;;;1.30;99.90;;;;;;5038856;28;20105;-80
2022/12/06 05:53:19;;;;;;;25.80;13.60;;;1.30;99.90;;;;;;5039654;28;20485;-81
2022/12/06 05:55:44;;;;;;;20.98;12.25;;;1.30;99.90;;;;;;5038382;28;20014;-80
2022/12/06 05:58:11;;;;;;;22.23;13.43;;;1.30;99.90;;;;;;5049896;28;20096;-80
2022/12/06 06:00:37;;;;;;;22.88;12.18;;;1.30;99.90;;;;;;5014226;28;20033;-80
2022/12/06 06:03:04;;;;;;;20.40;11.93;;;1.40;99.90;;;;;;5036358;28;20032;-80
2022/12/06 06:05:31;;;;;;;18.42;11.52;;;1.40;99.90;;;;;;5025133;28;20041;-79
2022/12/06 06:07:57;;;;;;;22.33;13.48;;;1.50;99.90;;;;;;5037667;28;20032;-80
2022/12/06 06:10:23;;;;;;;21.90;13.32;;;1.60;99.90;;;;;;5021295;28;20462;-80
2022/12/06 06:12:49;;;;;;;22.23;12.63;;;1.60;99.90;;;;;;5038053;28;20096;-80
2022/12/06 06:15:15;;;;;;;22.00;14.20;;;1.70;99.90;;;;;;5041096;28;20125;-80
2022/12/06 06:17:42;;;;;;;21.45;13.35;;;1.60;99.90;;;;;;5039899;28;20029;-80
2022/12/06 06:20:09;;;;;;;23.52;13.20;;;1.60;99.90;;;;;;5052521;28;20036;-82
2022/12/06 06:22:37;;;;;;;24.02;13.52;;;1.50;99.90;;;;;;5041764;28;20032;-79
2022/12/06 06:25:04;;;;;;;22.15;12.55;;;1.50;99.90;;;;;;5056234;28;20428;-80
2022/12/06 06:27:32;;;;;;;21.65;12.52;;;1.40;99.90;;;;;;5039985;28;20108;-81
2022/12/06 06:29:58;;;;;;;25.75;14.93;;;1.40;99.90;;;;;;5053096;28;20092;-80
2022/12/06 06:32:24;;;;;;;23.45;12.82;;;1.50;99.90;;;;;;5057721;28;20486;-82
2022/12/06 06:34:50;;;;;;;24.63;12.50;;;1.40;99.90;;;;;;5038958;28;20116;-79
2022/12/06 06:37:15;;;;;;;20.13;11.75;;;1.50;99.90;;;;;;5045279;28;20021;-82
2022/12/06 06:39:41;;;;;;;19.65;11.95;;;1.50;99.90;;;;;;5033439;28;20132;-78
2022/12/06 06:42:06;;;;;;;18.60;11.48;;;1.60;99.90;;;;;;5052738;28;20037;-79
2022/12/06 06:44:32;;;;;;;21.30;11.88;;;1.60;99.90;;;;;;5058291;28;20025;-80
2022/12/06 06:46:58;;;;;;;17.98;11.10;;;1.70;99.90;;;;;;5048072;28;20504;-79
2022/12/06 06:49:23;;;;;;;20.48;11.02;;;1.70;99.90;;;;;;5065677;28;20025;-78
2022/12/06 06:51:49;;;;;;;21.75;13.02;;;1.80;99.90;;;;;;5047149;28;20025;-79
2022/12/06 06:54:15;;;;;;;25.08;14.23;;;1.80;99.90;;;;;;5042959;28;20025;-79
2022/12/06 06:56:41;;;;;;;20.10;12.45;;;1.80;99.90;;;;;;5017880;28;20018;-79
2022/12/06 06:59:06;;;;;;;20.42;12.45;;;1.90;99.90;;;;;;5036658;28;20046;-80
2022/12/06 07:01:32;;;;;;;19.75;11.95;;;1.90;99.90;;;;;;5040561;28;20037;-79
2022/12/06 07:03:58;;;;;;;16.85;11.07;;;2.00;99.90;;;;;;5037150;28;20033;-80
2022/12/06 07:06:25;;;;;;;17.88;11.38;;;2.00;99.90;;;;;;5038686;28;20065;-80
2022/12/06 07:08:50;;;;;;;18.92;10.52;;;2.00;99.90;;;;;;5038983;28;20029;-81
2022/12/06 07:11:16;;;;;;;26.38;15.32;;;2.10;99.90;;;;;;5041608;28;20033;-80
2022/12/06 07:13:43;;;;;;;26.08;14.95;;;2.10;99.90;;;;;;5049496;28;20096;-80
2022/12/06 07:16:14;;;;;;;26.13;15.10;;;2.20;99.90;;;;;;5036421;28;20081;-80
2022/12/06 07:18:41;;;;;;;27.08;15.23;;;2.20;99.90;;;;;;5054237;28;20386;-80
2022/12/06 07:21:09;;;;;;;23.65;13.80;;;2.30;99.90;;;;;;5055583;28;20395;-81
2022/12/06 07:23:35;;;;;;;22.98;13.52;;;2.30;99.90;;;;;;5054482;28;20017;-80
2022/12/06 07:26:05;;;;;;;20.13;13.07;;;2.40;99.90;;;;;;5045954;28;20021;-80
2022/12/06 07:28:34;;;;;;;18.40;11.68;;;2.40;99.90;;;;;;5036350;28;20075;-82
2022/12/06 07:31:07;;;;;;;18.50;11.60;;;2.40;99.90;;;;;;5033117;28;20117;-81
2022/12/06 07:33:33;;;;;;;21.98;13.52;;;2.40;99.90;;;;;;5041386;28;20045;-80
2022/12/06 07:35:59;;;;;;;21.33;12.77;;;2.40;99.90;;;;;;5053406;28;20117;-81
2022/12/06 07:38:24;;;;;;;21.13;13.02;;;2.40;99.90;;;;;;5038504;28;20091;-81
2022/12/06 07:40:50;;;;;;;19.23;12.45;;;2.30;99.90;;;;;;5052868;28;20025;-81
2022/12/06 07:46:00;;;;;;;19.65;11.93;;;2.20;99.90;;;;;;5038336;28;20083;-80
2022/12/06 07:48:25;;;;;;;19.92;12.40;;;2.10;99.90;;;;;;5052027;28;20025;-81
2022/12/06 07:50:51;;;;;;;18.70;11.38;;;2.10;99.90;;;;;;5036581;28;20083;-80
2022/12/06 07:53:33;;;;;;;17.13;10.63;;;2.00;99.90;;;;;;5048560;28;20017;-81
2022/12/06 07:56:06;;;;;;;20.65;12.88;;;2.00;99.90;;;;;;5037922;28;20033;-82
2022/12/06 07:58:33;;;;;;;21.50;12.63;;;2.10;99.90;;;;;;5044662;28;20029;-81
2022/12/06 08:00:59;;;;;;;20.88;13.07;;;2.10;99.90;;;;;;5061529;28;20080;-82
2022/12/06 08:03:28;;;;;;;18.38;12.35;;;2.20;99.90;;;;;;5055409;28;20030;-82
2022/12/06 08:05:56;;;;;;;19.17;12.05;;;2.20;99.90;;;;;;5057633;28;20036;-81
2022/12/06 08:08:24;;;;;;;17.15;11.25;;;2.30;99.90;;;;;;5039770;28;20022;-84
2022/12/06 08:10:49;;;;;;;17.90;11.25;;;2.30;99.90;;;;;;5052425;28;20029;-81
2022/12/06 08:13:15;;;;;;;21.25;13.35;;;2.40;99.90;;;;;;5038506;28;20119;-80
2022/12/06 08:15:41;;;;;;;20.75;12.45;;;2.40;99.90;;;;;;5046145;28;20025;-81
2022/12/06 08:18:06;;;;;;;19.75;12.65;;;2.50;99.90;;;;;;5056486;28;20028;-81
2022/12/06 08:20:32;;;;;;;18.10;11.32;;;2.60;99.90;;;;;;5048794;28;20021;-80
2022/12/06 08:22:57;;;;;;;16.70;11.35;;;2.90;99.90;;;;;;5027768;28;20470;-80
2022/12/06 08:25:23;;;;;;;15.85;10.57;;;3.20;99.90;;;;;;5055589;28;20482;-81
2022/12/06 08:27:49;;;;;;;16.05;10.57;;;3.50;99.90;;;;;;5019689;28;20033;-81
2022/12/06 08:30:14;;;;;;;16.38;10.60;;;3.70;99.90;;;;;;5045048;28;20025;-79
2022/12/06 08:32:40;;;;;;;13.23;9.43;;;3.90;99.90;;;;;;5063182;28;20028;-79
2022/12/06 08:35:06;;;;;;;15.32;9.25;;;4.00;99.90;;;;;;5053787;28;20021;-80
2022/12/06 08:37:33;;;;;;;13.13;9.90;;;4.10;99.90;;;;;;5049458;28;20030;-80
2022/12/06 08:39:58;;;;;;;19.17;11.05;;;4.20;99.90;;;;;;5044153;28;20053;-79
2022/12/06 08:42:24;;;;;;;16.48;10.82;;;4.20;99.90;;;;;;5046156;28;20422;-80
2022/12/06 08:44:53;;;;;;;16.90;11.25;;;4.30;99.90;;;;;;5042062;28;20036;-78
2022/12/06 08:47:18;;;;;;;14.02;10.68;;;4.30;99.90;;;;;;5044406;28;20162;-80
2022/12/06 08:49:44;;;;;;;12.38;8.98;;;4.30;99.90;;;;;;5045801;28;20090;-79
2022/12/06 08:52:10;;;;;;;15.50;9.43;;;4.40;99.90;;;;;;5054046;28;20021;-80
2022/12/06 08:54:36;;;;;;;16.02;8.50;;;4.40;99.90;;;;;;5042750;28;20044;-81
2022/12/06 08:57:02;;;;;;;13.27;9.02;;;4.40;99.90;;;;;;5036335;28;20083;-79
2022/12/06 08:59:28;;;;;;;18.75;12.30;;;4.50;99.90;;;;;;5037173;28;20036;-80
2022/12/06 09:01:54;;;;;;;20.55;12.68;;;4.50;99.90;;;;;;5048103;28;20029;-81
2022/12/06 09:04:19;;;;;;;19.48;11.57;;;4.40;99.90;;;;;;5020498;28;20033;-80
2022/12/06 09:06:45;;;;;;;17.42;11.05;;;4.50;99.90;;;;;;5034800;28;20022;-80
2022/12/06 09:09:13;;;;;;;16.95;10.10;;;4.60;99.90;;;;;;5050848;28;20040;-80
2022/12/06 09:11:39;;;;;;;24.33;13.23;;;4.60;99.90;;;;;;5053565;28;20466;-80
2022/12/06 09:14:07;;;;;;;19.13;12.48;;;4.60;99.90;;;;;;5037558;28;20025;-80
2022/12/06 09:16:33;;;;;;;14.90;10.15;;;4.60;99.90;;;;;;5057241;28;20029;-80
2022/12/06 09:18:59;;;;;;;14.18;9.13;;;4.70;99.90;;;;;;5038259;28;20029;-80
2022/12/06 09:21:29;;;;;;;13.70;8.45;;;4.70;99.90;;;;;;5039844;28;20048;-80
2022/12/06 09:23:55;;;;;;;10.50;7.68;;;4.80;99.90;;;;;;5055896;28;20546;-80
2022/12/06 09:26:23;;;;;;;14.57;8.85;;;4.80;99.90;;;;;;5047135;28;20025;-80
2022/12/06 09:28:49;;;;;;;12.10;7.80;;;4.80;99.90;;;;;;5039382;28;20022;-82
2022/12/06 09:31:15;;;;;;;10.63;7.60;;;4.80;99.90;;;;;;5039757;28;20094;-80
2022/12/06 09:33:41;;;;;;;11.23;7.80;;;4.80;99.90;;;;;;5049821;28;20026;-81
2022/12/06 09:36:28;;;;;;;11.40;7.38;;;4.80;99.90;;;;;;5035045;28;20114;-80
2022/12/06 09:38:59;;;;;;;10.57;6.88;;;4.80;99.90;;;;;;5059272;28;20036;-80
2022/12/06 09:41:46;;;;;;;9.05;6.55;;;4.80;99.90;;;;;;5058032;28;20087;-81
2022/12/06 09:44:29;;;;;;;10.65;7.07;;;4.80;99.90;;;;;;5056115;28;20025;-80
2022/12/06 09:47:43;;;;;;;9.77;6.25;;;4.80;99.90;;;;;;5037795;28;20033;-80
2022/12/06 09:50:42;;;;;;;10.18;7.10;;;4.70;99.90;;;;;;5003669;28;20509;-80
2022/12/06 09:53:35;;;;;;;10.73;7.03;;;4.70;99.90;;;;;;5019032;28;20037;-80
2022/12/06 09:56:12;;;;;;;10.98;6.57;;;4.70;99.90;;;;;;5056241;28;20021;-80
2022/12/06 09:59:12;;;;;;;8.07;6.35;;;4.70;99.90;;;;;;5025901;28;20442;-80
2022/12/06 10:01:49;;;;;;;8.60;6.18;;;4.70;99.90;;;;;;5019271;28;20033;-80
2022/12/06 10:04:40;;;;;;;6.97;5.38;;;4.70;99.90;;;;;;5039451;28;20025;-80
2022/12/06 10:07:34;;;;;;;12.50;6.38;;;4.70;99.90;;;;;;5018535;28;20029;-80
2022/12/06 10:10:05;;;;;;;7.35;5.55;;;4.80;99.90;;;;;;5020344;28;20034;-81
2022/12/06 10:13:12;;;;;;;9.43;5.88;;;4.80;99.90;;;;;;5021245;28;20386;-79
2022/12/06 10:16:09;;;;;;;8.30;5.28;;;4.80;99.90;;;;;;5017974;28;20111;-79
2022/12/06 10:18:56;;;;;;;8.13;4.97;;;4.80;99.90;;;;;;5018121;28;20487;-78
2022/12/06 10:21:37;;;;;;;8.50;5.90;;;4.80;99.90;;;;;;5006624;28;20047;-79
2022/12/06 10:24:23;;;;;;;12.40;6.50;;;4.80;99.90;;;;;;5037722;28;20022;-81
2022/12/06 10:26:54;;;;;;;7.95;5.22;;;4.70;99.80;;;;;;5037657;28;20114;-79
2022/12/06 10:29:21;;;;;;;9.00;5.18;;;4.80;99.90;;;;;;5039025;28;20033;-79
2022/12/06 10:31:57;;;;;;;7.22;5.47;;;5.00;99.80;;;;;;5038483;28;20026;-79
2022/12/06 10:34:31;;;;;;;8.02;5.50;;;5.00;99.70;;;;;;5041348;28;20028;-78
2022/12/06 10:37:21;;;;;;;8.20;5.47;;;5.10;99.40;;;;;;5046029;28;20021;-79
2022/12/06 10:40:25;;;;;;;8.00;5.35;;;5.20;99.10;;;;;;5057115;28;20027;-79
2022/12/06 10:42:59;;;;;;;10.68;5.93;;;5.20;98.90;;;;;;5040879;28;20041;-79
2022/12/06 10:48:26;;;;;;;7.65;5.10;;;5.30;98.80;;;;;;5045966;28;20064;-79
2022/12/06 10:51:00;;;;;;;7.70;4.95;;;5.30;99.00;;;;;;5037518;28;20017;-79
2022/12/06 10:53:31;;;;;;;7.75;5.10;;;5.30;99.10;;;;;;5041931;28;20025;-81
2022/12/06 10:56:03;;;;;;;8.23;5.15;;;5.30;98.90;;;;;;5058186;28;20071;-80
2022/12/06 10:58:36;;;;;;;7.28;5.38;;;5.20;98.80;;;;;;5052349;28;20390;-80
2022/12/06 11:01:21;;;;;;;7.43;5.13;;;5.20;98.80;;;;;;5039676;28;20028;-80
2022/12/06 11:04:12;;;;;;;7.55;5.03;;;5.30;99.10;;;;;;5038314;28;20068;-79
2022/12/06 11:06:45;;;;;;;8.73;5.70;;;5.30;98.80;;;;;;5034085;28;20100;-79
2022/12/06 11:09:29;;;;;;;8.27;5.78;;;5.20;98.70;;;;;;5048634;28;20029;-79
2022/12/06 11:11:55;;;;;;;10.45;6.00;;;5.20;98.70;;;;;;5058418;28;20017;-80
2022/12/06 11:14:32;;;;;;;8.02;5.30;;;5.20;98.80;;;;;;5039047;28;20172;-79
2022/12/06 11:17:05;;;;;;;8.10;5.50;;;5.20;98.60;;;;;;5043818;22;20057;-80
2022/12/06 11:19:38;;;;;;;11.23;5.38;;;5.10;98.60;;;;;;5025551;28;20096;-80
2022/12/06 11:22:12;;;;;;;6.38;4.50;;;5.10;98.80;;;;;;5046094;28;20030;-81
2022/12/06 11:24:51;;;;;;;7.22;3.88;;;5.10;98.80;;;;;;5023491;28;20111;-79
2022/12/06 11:27:30;;;;;;;14.38;7.00;;;5.20;98.80;;;;;;5021860;28;20086;-80
2022/12/06 11:29:56;;;;;;;12.70;6.22;;;5.20;98.50;;;;;;5030903;28;20017;-79
2022/12/06 11:32:22;;;;;;;8.77;5.50;;;5.20;98.60;;;;;;5015936;28;20033;-79
2022/12/06 11:34:52;;;;;;;14.55;5.28;;;5.20;98.60;;;;;;5016661;28;20018;-80
2022/12/06 11:37:21;;;;;;;6.20;4.35;;;5.20;98.50;;;;;;5026431;28;20083;-79
2022/12/06 11:39:50;;;;;;;7.07;4.57;;;5.20;98.70;;;;;;5026818;28;20033;-80
2022/12/06 11:42:21;;;;;;;5.68;3.90;;;5.20;98.80;;;;;;5033849;28;20030;-80
2022/12/06 11:44:54;;;;;;;4.68;3.67;;;5.30;99.10;;;;;;5017069;28;20117;-79
2022/12/06 11:47:21;;;;;;;5.32;4.00;;;5.30;98.60;;;;;;5015081;28;20037;-79
2022/12/06 11:49:50;;;;;;;5.88;3.97;;;5.30;98.30;;;;;;5030502;28;20018;-80
2022/12/06 11:52:32;;;;;;;6.05;4.30;;;5.30;98.40;;;;;;5002048;28;20113;-80
2022/12/06 11:55:05;;;;;;;6.30;3.70;;;5.30;98.10;;;;;;5019282;28;20025;-79
2022/12/06 11:57:41;;;;;;;4.07;3.25;;;5.20;97.10;;;;;;5000923;28;20018;-80
2022/12/06 12:00:10;;;;;;;3.88;3.45;;;5.10;97.10;;;;;;5019378;28;20030;-79
2022/12/06 12:02:36;;;;;;;7.13;4.35;;;5.10;97.20;;;;;;5021414;28;20017;-80
2022/12/06 12:05:24;;;;;;;7.18;5.00;;;5.10;97.20;;;;;;5019206;28;20018;-80
2022/12/06 12:08:03;;;;;;;8.10;4.35;;;5.10;97.20;;;;;;5018122;28;20441;-79
2022/12/06 12:10:38;;;;;;;5.57;3.53;;;5.20;96.40;;;;;;5024250;28;20052;-80
2022/12/06 12:15:58;;;;;;;;;;;5.20;96.10;;;;;;5029528;28;20064;-81
2022/12/06 12:18:40;;;;;;;7.75;4.30;;;5.20;96.10;;;;;;5001577;28;19913;-80
2022/12/06 12:21:06;;;;;;;4.88;3.38;;;5.20;95.90;;;;;;5026133;28;20489;-79
2022/12/06 12:23:36;;;;;;;5.15;3.50;;;5.10;95.80;;;;;;5020785;28;20033;-80
2022/12/06 12:26:19;;;;;;;6.18;4.18;;;5.10;96.00;;;;;;5035263;28;20025;-80
2022/12/06 12:29:03;;;;;;;5.72;3.63;;;5.20;96.10;;;;;;5036576;28;20482;-81
2022/12/06 12:31:29;;;;;;;5.25;3.50;;;5.20;95.70;;;;;;5026826;28;20038;-79
2022/12/06 12:34:17;;;;;;;5.65;3.95;;;5.10;95.70;;;;;;5018061;28;20060;-79
2022/12/06 12:36:49;;;;;;;6.38;4.05;;;5.20;95.60;;;;;;5019270;28;20026;-80
2022/12/06 12:39:39;;;;;;;5.47;3.70;;;5.10;95.70;;;;;;5002191;28;20033;-79
2022/12/06 12:42:35;;;;;;;4.32;3.05;;;5.00;96.10;;;;;;5015748;28;20076;-80
2022/12/06 12:45:04;;;;;;;6.00;3.15;;;5.00;96.40;;;;;;5020511;28;20366;-79
2022/12/06 12:47:31;;;;;;;3.60;2.30;;;5.00;96.50;;;;;;5036593;28;20097;-80
2022/12/06 12:50:30;;;;;;;5.03;4.20;;;5.00;96.60;;;;;;5038257;28;20446;-80
2022/12/06 12:52:57;;;;;;;5.70;3.95;;;5.00;96.60;;;;;;5017210;28;20120;-79
2022/12/06 12:55:26;;;;;;;6.38;3.45;;;5.00;96.30;;;;;;5000077;28;20040;-80
2022/12/06 12:58:08;;;;;;;6.65;4.13;;;5.00;96.10;;;;;;5022931;28;20034;-80
2022/12/06 13:00:44;;;;;;;6.28;3.38;;;5.00;95.60;;;;;;5034691;28;20089;-80
2022/12/06 13:03:19;;;;;;;4.50;2.75;;;5.00;95.90;;;;;;5020835;28;20025;-81
2022/12/06 13:05:47;;;;;;;5.00;3.25;;;5.00;96.20;;;;;;5028792;28;20028;-80
2022/12/06 13:08:20;;;;;;;5.25;3.65;;;5.00;96.30;;;;;;5039721;28;20049;-79
2022/12/06 13:10:51;;;;;;;6.72;4.32;;;5.00;96.20;;;;;;5039938;28;20033;-81
2022/12/06 13:13:35;;;;;;;6.72;3.97;;;5.00;96.10;;;;;;5040439;28;20060;-80
2022/12/06 13:16:02;;;;;;;6.15;3.78;;;5.00;96.10;;;;;;5030258;28;20036;-80
2022/12/06 13:18:44;;;;;;;6.72;4.30;;;5.00;95.90;;;;;;5021074;28;20041;-79
2022/12/06 13:21:20;;;;;;;7.15;4.30;;;5.00;95.80;;;;;;5012540;28;20033;-80
2022/12/06 13:23:59;;;;;;;7.63;3.60;;;5.00;95.70;;;;;;5040469;28;20060;-80
2022/12/06 13:26:50;;;;;;;5.40;3.10;;;5.00;95.60;;;;;;5009603;28;20022;-81
2022/12/06 13:29:22;;;;;;;4.07;2.58;;;5.00;95.60;;;;;;5014874;28;20060;-80
2022/12/06 13:31:50;;;;;;;5.80;3.47;;;5.10;95.60;;;;;;5041511;28;20119;-81
2022/12/06 13:34:45;;;;;;;4.18;3.15;;;5.10;95.40;;;;;;5038740;28;20025;-80